sensor_id;sensor_type;location;lat;lon;timestamp;P1;durP1;ratioP1;P2;durP2;ratioP2
4464;SDS011;2245;48.136;13.428;2024-01-11T00:02:02;65.43;;;25.53;;
4464;SDS011;2245;48.136;13.428;2024-01-11T00:04:31;49.00;;;21.27;;
4464;SDS011;2245;48.136;13.428;2024-01-11T00:06:58;61.30;;;22.40;;
4464;SDS011;2245;48.136;13.428;2024-01-11T00:09:25;58.77;;;25.03;;
4464;SDS011;2245;48.136;13.428;2024-01-11T00:11:52;62.73;;;25.90;;
4464;SDS011;2245;48.136;13.428;2024-01-11T00:14:19;57.67;;;24.77;;
4464;SDS011;2245;48.136;13.428;2024-01-11T00:16:46;49.67;;;22.63;;
4464;SDS011;2245;48.136;13.428;2024-01-11T00:19:13;58.30;;;25.40;;
4464;SDS011;2245;48.136;13.428;2024-01-11T00:21:41;69.80;;;26.97;;
4464;SDS011;2245;48.136;13.428;2024-01-11T00:24:08;56.23;;;22.97;;
4464;SDS011;2245;48.136;13.428;2024-01-11T00:26:35;59.90;;;22.70;;
4464;SDS011;2245;48.136;13.428;2024-01-11T00:29:02;54.00;;;22.83;;
4464;SDS011;2245;48.136;13.428;2024-01-11T00:31:29;70.07;;;23.27;;
4464;SDS011;2245;48.136;13.428;2024-01-11T00:33:56;74.03;;;25.90;;
4464;SDS011;2245;48.136;13.428;2024-01-11T00:36:24;69.57;;;25.43;;
4464;SDS011;2245;48.136;13.428;2024-01-11T00:38:54;58.17;;;23.43;;
4464;SDS011;2245;48.136;13.428;2024-01-11T00:41:21;57.10;;;24.50;;
4464;SDS011;2245;48.136;13.428;2024-01-11T00:43:48;55.87;;;25.90;;
4464;SDS011;2245;48.136;13.428;2024-01-11T00:46:16;49.83;;;22.53;;
4464;SDS011;2245;48.136;13.428;2024-01-11T00:48:43;54.87;;;23.47;;
4464;SDS011;2245;48.136;13.428;2024-01-11T00:51:10;73.53;;;27.60;;
4464;SDS011;2245;48.136;13.428;2024-01-11T00:53:37;57.17;;;25.30;;
4464;SDS011;2245;48.136;13.428;2024-01-11T00:56:05;50.37;;;21.03;;
4464;SDS011;2245;48.136;13.428;2024-01-11T00:58:32;48.70;;;22.00;;
4464;SDS011;2245;48.136;13.428;2024-01-11T01:00:59;52.40;;;22.20;;
4464;SDS011;2245;48.136;13.428;2024-01-11T01:03:26;57.87;;;25.33;;
4464;SDS011;2245;48.136;13.428;2024-01-11T01:05:53;55.40;;;25.80;;
4464;SDS011;2245;48.136;13.428;2024-01-11T01:08:21;54.20;;;26.13;;
4464;SDS011;2245;48.136;13.428;2024-01-11T01:10:48;58.70;;;24.43;;
4464;SDS011;2245;48.136;13.428;2024-01-11T01:13:16;78.73;;;25.50;;
4464;SDS011;2245;48.136;13.428;2024-01-11T01:15:43;51.03;;;22.73;;
4464;SDS011;2245;48.136;13.428;2024-01-11T01:18:10;74.23;;;23.23;;
4464;SDS011;2245;48.136;13.428;2024-01-11T01:20:37;45.43;;;22.10;;
4464;SDS011;2245;48.136;13.428;2024-01-11T01:23:04;62.70;;;25.97;;
4464;SDS011;2245;48.136;13.428;2024-01-11T01:25:31;56.77;;;23.60;;
4464;SDS011;2245;48.136;13.428;2024-01-11T01:27:58;59.43;;;22.60;;
4464;SDS011;2245;48.136;13.428;2024-01-11T01:30:27;48.27;;;22.27;;
4464;SDS011;2245;48.136;13.428;2024-01-11T01:32:54;51.67;;;21.37;;
4464;SDS011;2245;48.136;13.428;2024-01-11T01:35:21;62.60;;;24.63;;
4464;SDS011;2245;48.136;13.428;2024-01-11T01:37:48;65.23;;;25.50;;
4464;SDS011;2245;48.136;13.428;2024-01-11T01:40:15;56.70;;;22.80;;
4464;SDS011;2245;48.136;13.428;2024-01-11T01:42:42;57.17;;;23.57;;
4464;SDS011;2245;48.136;13.428;2024-01-11T01:45:10;55.57;;;24.90;;
4464;SDS011;2245;48.136;13.428;2024-01-11T01:47:39;54.33;;;22.37;;
4464;SDS011;2245;48.136;13.428;2024-01-11T01:50:07;62.30;;;25.40;;
4464;SDS011;2245;48.136;13.428;2024-01-11T01:52:36;72.50;;;23.27;;
4464;SDS011;2245;48.136;13.428;2024-01-11T01:55:05;54.67;;;22.33;;
4464;SDS011;2245;48.136;13.428;2024-01-11T01:57:33;54.00;;;23.73;;
4464;SDS011;2245;48.136;13.428;2024-01-11T02:00:01;53.90;;;22.43;;
4464;SDS011;2245;48.136;13.428;2024-01-11T02:02:28;57.83;;;25.23;;
4464;SDS011;2245;48.136;13.428;2024-01-11T02:04:58;54.07;;;22.10;;
4464;SDS011;2245;48.136;13.428;2024-01-11T02:07:25;53.17;;;21.40;;
4464;SDS011;2245;48.136;13.428;2024-01-11T02:09:52;50.87;;;21.53;;
4464;SDS011;2245;48.136;13.428;2024-01-11T02:12:19;59.10;;;20.60;;
4464;SDS011;2245;48.136;13.428;2024-01-11T02:14:46;53.83;;;22.97;;
4464;SDS011;2245;48.136;13.428;2024-01-11T02:17:13;58.00;;;26.17;;
4464;SDS011;2245;48.136;13.428;2024-01-11T02:19:41;55.47;;;21.97;;
4464;SDS011;2245;48.136;13.428;2024-01-11T02:22:11;58.30;;;24.63;;
4464;SDS011;2245;48.136;13.428;2024-01-11T02:24:42;69.17;;;24.73;;
4464;SDS011;2245;48.136;13.428;2024-01-11T02:27:09;60.47;;;25.00;;
4464;SDS011;2245;48.136;13.428;2024-01-11T02:29:36;67.60;;;24.57;;
4464;SDS011;2245;48.136;13.428;2024-01-11T02:32:03;52.60;;;25.13;;
4464;SDS011;2245;48.136;13.428;2024-01-11T02:34:31;51.80;;;25.07;;
4464;SDS011;2245;48.136;13.428;2024-01-11T02:36:58;49.97;;;23.83;;
4464;SDS011;2245;48.136;13.428;2024-01-11T02:39:25;56.90;;;25.20;;
4464;SDS011;2245;48.136;13.428;2024-01-11T02:41:56;62.43;;;26.33;;
4464;SDS011;2245;48.136;13.428;2024-01-11T02:44:23;71.80;;;27.10;;
4464;SDS011;2245;48.136;13.428;2024-01-11T02:46:50;65.73;;;26.23;;
4464;SDS011;2245;48.136;13.428;2024-01-11T02:49:17;54.00;;;23.17;;
4464;SDS011;2245;48.136;13.428;2024-01-11T02:51:44;60.43;;;22.97;;
4464;SDS011;2245;48.136;13.428;2024-01-11T02:54:11;58.53;;;25.03;;
4464;SDS011;2245;48.136;13.428;2024-01-11T02:56:38;63.23;;;25.70;;
4464;SDS011;2245;48.136;13.428;2024-01-11T02:59:09;53.60;;;24.20;;
4464;SDS011;2245;48.136;13.428;2024-01-11T03:01:37;54.77;;;22.63;;
4464;SDS011;2245;48.136;13.428;2024-01-11T03:04:04;83.37;;;28.93;;
4464;SDS011;2245;48.136;13.428;2024-01-11T03:06:31;59.50;;;25.07;;
4464;SDS011;2245;48.136;13.428;2024-01-11T03:08:58;60.10;;;26.23;;
4464;SDS011;2245;48.136;13.428;2024-01-11T03:11:25;61.03;;;26.27;;
4464;SDS011;2245;48.136;13.428;2024-01-11T03:13:52;60.23;;;28.03;;
4464;SDS011;2245;48.136;13.428;2024-01-11T03:16:22;70.47;;;27.87;;
4464;SDS011;2245;48.136;13.428;2024-01-11T03:18:49;59.57;;;25.37;;
4464;SDS011;2245;48.136;13.428;2024-01-11T03:21:16;64.53;;;24.60;;
4464;SDS011;2245;48.136;13.428;2024-01-11T03:23:43;73.17;;;26.63;;
4464;SDS011;2245;48.136;13.428;2024-01-11T03:26:13;69.50;;;25.87;;
4464;SDS011;2245;48.136;13.428;2024-01-11T03:28:40;62.93;;;24.90;;
4464;SDS011;2245;48.136;13.428;2024-01-11T03:31:07;54.40;;;22.77;;
4464;SDS011;2245;48.136;13.428;2024-01-11T03:33:36;59.70;;;26.30;;
4464;SDS011;2245;48.136;13.428;2024-01-11T03:36:06;55.07;;;27.03;;
4464;SDS011;2245;48.136;13.428;2024-01-11T03:38:35;57.03;;;23.83;;
4464;SDS011;2245;48.136;13.428;2024-01-11T03:41:02;62.87;;;25.37;;
4464;SDS011;2245;48.136;13.428;2024-01-11T03:43:34;61.83;;;25.00;;
4464;SDS011;2245;48.136;13.428;2024-01-11T03:46:01;64.60;;;27.17;;
4464;SDS011;2245;48.136;13.428;2024-01-11T03:48:28;67.47;;;26.10;;
4464;SDS011;2245;48.136;13.428;2024-01-11T03:50:56;62.57;;;25.10;;
4464;SDS011;2245;48.136;13.428;2024-01-11T03:53:23;68.17;;;22.80;;
4464;SDS011;2245;48.136;13.428;2024-01-11T03:55:50;69.17;;;26.67;;
4464;SDS011;2245;48.136;13.428;2024-01-11T03:58:17;50.87;;;24.00;;
4464;SDS011;2245;48.136;13.428;2024-01-11T04:00:44;73.70;;;25.20;;
4464;SDS011;2245;48.136;13.428;2024-01-11T04:03:11;58.77;;;25.40;;
4464;SDS011;2245;48.136;13.428;2024-01-11T04:05:38;63.53;;;25.70;;
4464;SDS011;2245;48.136;13.428;2024-01-11T04:08:06;71.77;;;26.60;;
4464;SDS011;2245;48.136;13.428;2024-01-11T04:10:33;60.17;;;26.87;;
4464;SDS011;2245;48.136;13.428;2024-01-11T04:13:00;65.53;;;26.83;;
4464;SDS011;2245;48.136;13.428;2024-01-11T04:15:27;63.57;;;25.50;;
4464;SDS011;2245;48.136;13.428;2024-01-11T04:17:54;64.80;;;27.73;;
4464;SDS011;2245;48.136;13.428;2024-01-11T04:20:21;55.40;;;26.70;;
4464;SDS011;2245;48.136;13.428;2024-01-11T04:22:49;50.33;;;21.10;;
4464;SDS011;2245;48.136;13.428;2024-01-11T04:25:17;56.13;;;26.07;;
4464;SDS011;2245;48.136;13.428;2024-01-11T04:27:45;64.80;;;26.37;;
4464;SDS011;2245;48.136;13.428;2024-01-11T04:30:12;55.80;;;23.60;;
4464;SDS011;2245;48.136;13.428;2024-01-11T04:32:39;65.63;;;27.10;;
4464;SDS011;2245;48.136;13.428;2024-01-11T04:35:07;63.13;;;24.90;;
4464;SDS011;2245;48.136;13.428;2024-01-11T04:37:34;58.87;;;24.23;;
4464;SDS011;2245;48.136;13.428;2024-01-11T04:40:02;58.87;;;23.20;;
4464;SDS011;2245;48.136;13.428;2024-01-11T04:42:30;61.47;;;22.67;;
4464;SDS011;2245;48.136;13.428;2024-01-11T04:44:57;64.77;;;27.43;;
4464;SDS011;2245;48.136;13.428;2024-01-11T04:47:24;80.60;;;27.50;;
4464;SDS011;2245;48.136;13.428;2024-01-11T04:49:51;69.90;;;28.03;;
4464;SDS011;2245;48.136;13.428;2024-01-11T04:52:18;62.70;;;25.20;;
4464;SDS011;2245;48.136;13.428;2024-01-11T04:54:45;70.97;;;28.33;;
4464;SDS011;2245;48.136;13.428;2024-01-11T04:57:12;63.90;;;25.53;;
4464;SDS011;2245;48.136;13.428;2024-01-11T04:59:41;54.03;;;25.77;;
4464;SDS011;2245;48.136;13.428;2024-01-11T05:02:08;60.27;;;25.00;;
4464;SDS011;2245;48.136;13.428;2024-01-11T05:04:35;59.60;;;22.60;;
4464;SDS011;2245;48.136;13.428;2024-01-11T05:07:02;60.23;;;22.33;;
4464;SDS011;2245;48.136;13.428;2024-01-11T05:09:29;74.80;;;25.93;;
4464;SDS011;2245;48.136;13.428;2024-01-11T05:11:56;61.60;;;26.63;;
4464;SDS011;2245;48.136;13.428;2024-01-11T05:14:23;68.50;;;26.23;;
4464;SDS011;2245;48.136;13.428;2024-01-11T05:16:52;68.93;;;25.90;;
4464;SDS011;2245;48.136;13.428;2024-01-11T05:19:19;64.83;;;25.90;;
4464;SDS011;2245;48.136;13.428;2024-01-11T05:21:46;64.77;;;26.17;;
4464;SDS011;2245;48.136;13.428;2024-01-11T05:24:13;58.83;;;25.53;;
4464;SDS011;2245;48.136;13.428;2024-01-11T05:26:40;66.90;;;24.83;;
4464;SDS011;2245;48.136;13.428;2024-01-11T05:29:07;64.40;;;26.70;;
4464;SDS011;2245;48.136;13.428;2024-01-11T05:31:34;74.50;;;26.07;;
4464;SDS011;2245;48.136;13.428;2024-01-11T05:34:03;58.20;;;24.43;;
4464;SDS011;2245;48.136;13.428;2024-01-11T05:36:30;63.63;;;27.23;;
4464;SDS011;2245;48.136;13.428;2024-01-11T05:38:57;62.90;;;25.77;;
4464;SDS011;2245;48.136;13.428;2024-01-11T05:41:24;54.57;;;23.70;;
4464;SDS011;2245;48.136;13.428;2024-01-11T05:43:51;68.83;;;25.47;;
4464;SDS011;2245;48.136;13.428;2024-01-11T05:46:18;54.33;;;24.67;;
4464;SDS011;2245;48.136;13.428;2024-01-11T05:48:45;88.03;;;40.40;;
4464;SDS011;2245;48.136;13.428;2024-01-11T05:51:13;59.07;;;24.77;;
4464;SDS011;2245;48.136;13.428;2024-01-11T05:53:41;72.47;;;27.13;;
4464;SDS011;2245;48.136;13.428;2024-01-11T05:56:08;53.03;;;22.43;;
4464;SDS011;2245;48.136;13.428;2024-01-11T05:58:35;58.40;;;24.10;;
4464;SDS011;2245;48.136;13.428;2024-01-11T06:01:03;58.23;;;24.23;;
4464;SDS011;2245;48.136;13.428;2024-01-11T06:03:31;60.17;;;25.20;;
4464;SDS011;2245;48.136;13.428;2024-01-11T06:05:59;73.80;;;31.10;;
4464;SDS011;2245;48.136;13.428;2024-01-11T06:08:29;54.40;;;24.87;;
4464;SDS011;2245;48.136;13.428;2024-01-11T06:10:56;45.57;;;24.17;;
4464;SDS011;2245;48.136;13.428;2024-01-11T06:13:23;62.57;;;26.83;;
4464;SDS011;2245;48.136;13.428;2024-01-11T06:15:51;65.87;;;26.10;;
4464;SDS011;2245;48.136;13.428;2024-01-11T06:18:18;63.93;;;27.03;;
4464;SDS011;2245;48.136;13.428;2024-01-11T06:20:45;59.23;;;26.17;;
4464;SDS011;2245;48.136;13.428;2024-01-11T06:23:13;83.70;;;30.97;;
4464;SDS011;2245;48.136;13.428;2024-01-11T06:25:43;183.00;;;60.30;;
4464;SDS011;2245;48.136;13.428;2024-01-11T06:28:11;59.90;;;24.80;;
4464;SDS011;2245;48.136;13.428;2024-01-11T06:30:38;67.37;;;26.53;;
4464;SDS011;2245;48.136;13.428;2024-01-11T06:33:05;57.30;;;24.13;;
4464;SDS011;2245;48.136;13.428;2024-01-11T06:35:32;54.10;;;24.00;;
4464;SDS011;2245;48.136;13.428;2024-01-11T06:38:00;63.33;;;27.60;;
4464;SDS011;2245;48.136;13.428;2024-01-11T06:40:28;62.00;;;26.10;;
4464;SDS011;2245;48.136;13.428;2024-01-11T06:42:56;61.30;;;24.10;;
4464;SDS011;2245;48.136;13.428;2024-01-11T06:45:23;60.53;;;22.83;;
4464;SDS011;2245;48.136;13.428;2024-01-11T06:47:50;67.67;;;26.33;;
4464;SDS011;2245;48.136;13.428;2024-01-11T06:50:17;65.30;;;24.20;;
4464;SDS011;2245;48.136;13.428;2024-01-11T06:52:44;69.03;;;29.93;;
4464;SDS011;2245;48.136;13.428;2024-01-11T06:55:11;59.00;;;23.80;;
4464;SDS011;2245;48.136;13.428;2024-01-11T06:57:38;76.23;;;28.47;;
4464;SDS011;2245;48.136;13.428;2024-01-11T07:00:07;84.90;;;34.37;;
4464;SDS011;2245;48.136;13.428;2024-01-11T07:02:35;78.73;;;30.83;;
4464;SDS011;2245;48.136;13.428;2024-01-11T07:05:02;76.80;;;31.67;;
4464;SDS011;2245;48.136;13.428;2024-01-11T07:07:29;69.90;;;29.10;;
4464;SDS011;2245;48.136;13.428;2024-01-11T07:09:58;64.17;;;28.40;;
4464;SDS011;2245;48.136;13.428;2024-01-11T07:12:25;71.10;;;30.00;;
4464;SDS011;2245;48.136;13.428;2024-01-11T07:14:52;76.17;;;30.63;;
4464;SDS011;2245;48.136;13.428;2024-01-11T07:17:20;66.87;;;28.00;;
4464;SDS011;2245;48.136;13.428;2024-01-11T07:19:48;74.67;;;31.23;;
4464;SDS011;2245;48.136;13.428;2024-01-11T07:22:15;67.33;;;29.73;;
4464;SDS011;2245;48.136;13.428;2024-01-11T07:24:42;65.83;;;31.13;;
4464;SDS011;2245;48.136;13.428;2024-01-11T07:27:09;74.77;;;30.50;;
4464;SDS011;2245;48.136;13.428;2024-01-11T07:29:36;75.03;;;31.53;;
4464;SDS011;2245;48.136;13.428;2024-01-11T07:32:03;72.93;;;30.00;;
4464;SDS011;2245;48.136;13.428;2024-01-11T07:34:32;78.57;;;34.70;;
4464;SDS011;2245;48.136;13.428;2024-01-11T07:36:59;84.53;;;34.47;;
4464;SDS011;2245;48.136;13.428;2024-01-11T07:39:26;82.33;;;32.30;;
4464;SDS011;2245;48.136;13.428;2024-01-11T07:41:56;74.80;;;35.57;;
4464;SDS011;2245;48.136;13.428;2024-01-11T07:44:23;94.67;;;39.23;;
4464;SDS011;2245;48.136;13.428;2024-01-11T07:46:50;96.13;;;38.93;;
4464;SDS011;2245;48.136;13.428;2024-01-11T07:49:17;76.17;;;31.87;;
4464;SDS011;2245;48.136;13.428;2024-01-11T07:51:45;73.07;;;32.73;;
4464;SDS011;2245;48.136;13.428;2024-01-11T07:54:12;79.80;;;34.77;;
4464;SDS011;2245;48.136;13.428;2024-01-11T07:56:39;89.70;;;34.87;;
4464;SDS011;2245;48.136;13.428;2024-01-11T07:59:07;78.73;;;34.00;;
4464;SDS011;2245;48.136;13.428;2024-01-11T08:01:38;80.17;;;34.97;;
4464;SDS011;2245;48.136;13.428;2024-01-11T08:04:05;80.70;;;35.30;;
4464;SDS011;2245;48.136;13.428;2024-01-11T08:06:32;78.73;;;32.33;;
4464;SDS011;2245;48.136;13.428;2024-01-11T08:09:01;77.27;;;31.30;;
4464;SDS011;2245;48.136;13.428;2024-01-11T08:11:29;76.13;;;31.33;;
4464;SDS011;2245;48.136;13.428;2024-01-11T08:13:58;88.83;;;39.17;;
4464;SDS011;2245;48.136;13.428;2024-01-11T08:16:25;77.13;;;33.40;;
4464;SDS011;2245;48.136;13.428;2024-01-11T08:18:52;81.43;;;34.73;;
4464;SDS011;2245;48.136;13.428;2024-01-11T08:21:19;86.97;;;32.47;;
4464;SDS011;2245;48.136;13.428;2024-01-11T08:23:46;84.47;;;33.30;;
4464;SDS011;2245;48.136;13.428;2024-01-11T08:26:15;77.50;;;33.27;;
4464;SDS011;2245;48.136;13.428;2024-01-11T08:28:44;104.47;;;39.43;;
4464;SDS011;2245;48.136;13.428;2024-01-11T08:31:11;103.80;;;40.03;;
4464;SDS011;2245;48.136;13.428;2024-01-11T08:33:38;112.17;;;43.53;;
4464;SDS011;2245;48.136;13.428;2024-01-11T08:36:05;107.07;;;41.97;;
4464;SDS011;2245;48.136;13.428;2024-01-11T08:38:33;104.23;;;43.50;;
4464;SDS011;2245;48.136;13.428;2024-01-11T08:41:00;104.37;;;38.10;;
4464;SDS011;2245;48.136;13.428;2024-01-11T08:43:30;104.43;;;39.47;;
4464;SDS011;2245;48.136;13.428;2024-01-11T08:45:57;117.00;;;53.53;;
4464;SDS011;2245;48.136;13.428;2024-01-11T08:48:24;103.13;;;38.03;;
4464;SDS011;2245;48.136;13.428;2024-01-11T08:50:51;81.80;;;36.57;;
4464;SDS011;2245;48.136;13.428;2024-01-11T08:53:18;84.47;;;36.60;;
4464;SDS011;2245;48.136;13.428;2024-01-11T08:55:45;93.60;;;36.03;;
4464;SDS011;2245;48.136;13.428;2024-01-11T08:58:12;92.40;;;36.87;;
4464;SDS011;2245;48.136;13.428;2024-01-11T09:00:41;80.47;;;32.37;;
4464;SDS011;2245;48.136;13.428;2024-01-11T09:03:09;93.73;;;35.20;;
4464;SDS011;2245;48.136;13.428;2024-01-11T09:05:37;90.00;;;35.27;;
4464;SDS011;2245;48.136;13.428;2024-01-11T09:08:05;98.30;;;39.87;;
4464;SDS011;2245;48.136;13.428;2024-01-11T09:10:32;89.83;;;37.87;;
4464;SDS011;2245;48.136;13.428;2024-01-11T09:12:59;102.97;;;37.63;;
4464;SDS011;2245;48.136;13.428;2024-01-11T09:15:27;94.73;;;36.97;;
4464;SDS011;2245;48.136;13.428;2024-01-11T09:17:55;70.93;;;29.30;;
4464;SDS011;2245;48.136;13.428;2024-01-11T09:20:21;88.63;;;36.47;;
4464;SDS011;2245;48.136;13.428;2024-01-11T09:22:48;99.60;;;36.30;;
4464;SDS011;2245;48.136;13.428;2024-01-11T09:25:15;98.83;;;35.93;;
4464;SDS011;2245;48.136;13.428;2024-01-11T09:27:42;99.20;;;37.97;;
4464;SDS011;2245;48.136;13.428;2024-01-11T09:30:10;97.53;;;39.23;;
4464;SDS011;2245;48.136;13.428;2024-01-11T09:32:37;111.40;;;39.80;;
4464;SDS011;2245;48.136;13.428;2024-01-11T09:35:06;91.03;;;39.17;;
4464;SDS011;2245;48.136;13.428;2024-01-11T09:37:33;90.20;;;37.73;;
4464;SDS011;2245;48.136;13.428;2024-01-11T09:40:00;116.37;;;42.43;;
4464;SDS011;2245;48.136;13.428;2024-01-11T09:42:31;94.87;;;39.53;;
4464;SDS011;2245;48.136;13.428;2024-01-11T09:44:58;116.33;;;42.47;;
4464;SDS011;2245;48.136;13.428;2024-01-11T09:47:26;110.37;;;43.63;;
4464;SDS011;2245;48.136;13.428;2024-01-11T09:49:54;112.03;;;41.03;;
4464;SDS011;2245;48.136;13.428;2024-01-11T09:52:23;101.60;;;41.80;;
4464;SDS011;2245;48.136;13.428;2024-01-11T09:54:51;96.30;;;37.40;;
4464;SDS011;2245;48.136;13.428;2024-01-11T09:57:21;104.47;;;38.23;;
4464;SDS011;2245;48.136;13.428;2024-01-11T09:59:50;88.20;;;38.23;;
4464;SDS011;2245;48.136;13.428;2024-01-11T10:02:20;101.43;;;39.87;;
4464;SDS011;2245;48.136;13.428;2024-01-11T10:04:48;94.70;;;39.40;;
4464;SDS011;2245;48.136;13.428;2024-01-11T10:07:17;105.17;;;41.73;;
4464;SDS011;2245;48.136;13.428;2024-01-11T10:09:47;93.43;;;39.67;;
4464;SDS011;2245;48.136;13.428;2024-01-11T10:12:14;103.23;;;39.47;;
4464;SDS011;2245;48.136;13.428;2024-01-11T10:14:41;82.53;;;37.57;;
4464;SDS011;2245;48.136;13.428;2024-01-11T10:17:08;97.40;;;39.07;;
4464;SDS011;2245;48.136;13.428;2024-01-11T10:19:35;98.90;;;38.97;;
4464;SDS011;2245;48.136;13.428;2024-01-11T10:22:02;91.87;;;41.37;;
4464;SDS011;2245;48.136;13.428;2024-01-11T10:24:32;107.40;;;41.30;;
4464;SDS011;2245;48.136;13.428;2024-01-11T10:27:02;82.10;;;37.37;;
4464;SDS011;2245;48.136;13.428;2024-01-11T10:29:31;103.33;;;38.67;;
4464;SDS011;2245;48.136;13.428;2024-01-11T10:32:01;100.43;;;40.50;;
4464;SDS011;2245;48.136;13.428;2024-01-11T10:34:30;84.13;;;38.53;;
4464;SDS011;2245;48.136;13.428;2024-01-11T10:36:57;96.73;;;38.13;;
4464;SDS011;2245;48.136;13.428;2024-01-11T10:39:24;102.50;;;42.00;;
4464;SDS011;2245;48.136;13.428;2024-01-11T10:41:55;97.40;;;39.97;;
4464;SDS011;2245;48.136;13.428;2024-01-11T10:44:27;86.30;;;35.23;;
4464;SDS011;2245;48.136;13.428;2024-01-11T10:46:56;105.17;;;37.17;;
4464;SDS011;2245;48.136;13.428;2024-01-11T10:49:23;96.73;;;39.53;;
4464;SDS011;2245;48.136;13.428;2024-01-11T10:51:53;108.40;;;39.53;;
4464;SDS011;2245;48.136;13.428;2024-01-11T10:54:26;87.97;;;39.50;;
4464;SDS011;2245;48.136;13.428;2024-01-11T10:56:54;102.33;;;39.37;;
4464;SDS011;2245;48.136;13.428;2024-01-11T10:59:21;90.50;;;39.07;;
4464;SDS011;2245;48.136;13.428;2024-01-11T11:01:52;98.83;;;40.40;;
4464;SDS011;2245;48.136;13.428;2024-01-11T11:04:21;98.10;;;40.50;;
4464;SDS011;2245;48.136;13.428;2024-01-11T11:06:49;87.90;;;38.10;;
4464;SDS011;2245;48.136;13.428;2024-01-11T11:09:16;82.20;;;34.77;;
4464;SDS011;2245;48.136;13.428;2024-01-11T11:11:44;90.23;;;36.70;;
4464;SDS011;2245;48.136;13.428;2024-01-11T11:14:13;81.10;;;35.87;;
4464;SDS011;2245;48.136;13.428;2024-01-11T11:16:42;82.73;;;37.37;;
4464;SDS011;2245;48.136;13.428;2024-01-11T11:19:12;79.97;;;36.47;;
4464;SDS011;2245;48.136;13.428;2024-01-11T11:21:41;94.03;;;37.43;;
4464;SDS011;2245;48.136;13.428;2024-01-11T11:24:10;93.43;;;40.17;;
4464;SDS011;2245;48.136;13.428;2024-01-11T11:26:37;87.33;;;37.30;;
4464;SDS011;2245;48.136;13.428;2024-01-11T11:29:04;94.03;;;40.43;;
4464;SDS011;2245;48.136;13.428;2024-01-11T11:31:34;86.60;;;40.30;;
4464;SDS011;2245;48.136;13.428;2024-01-11T11:34:03;100.23;;;38.07;;
4464;SDS011;2245;48.136;13.428;2024-01-11T11:36:32;109.17;;;42.20;;
4464;SDS011;2245;48.136;13.428;2024-01-11T11:39:00;101.13;;;41.70;;
4464;SDS011;2245;48.136;13.428;2024-01-11T11:41:29;102.77;;;37.47;;
4464;SDS011;2245;48.136;13.428;2024-01-11T11:44:00;99.13;;;39.87;;
4464;SDS011;2245;48.136;13.428;2024-01-11T11:46:27;109.63;;;39.77;;
4464;SDS011;2245;48.136;13.428;2024-01-11T11:48:54;100.10;;;41.00;;
4464;SDS011;2245;48.136;13.428;2024-01-11T11:51:22;101.67;;;40.67;;
4464;SDS011;2245;48.136;13.428;2024-01-11T11:53:50;100.37;;;40.10;;
4464;SDS011;2245;48.136;13.428;2024-01-11T11:56:18;100.73;;;43.07;;
4464;SDS011;2245;48.136;13.428;2024-01-11T11:58:47;115.50;;;47.57;;
4464;SDS011;2245;48.136;13.428;2024-01-11T12:01:15;103.87;;;40.40;;
4464;SDS011;2245;48.136;13.428;2024-01-11T12:03:42;92.53;;;38.57;;
4464;SDS011;2245;48.136;13.428;2024-01-11T12:06:15;87.37;;;39.27;;
4464;SDS011;2245;48.136;13.428;2024-01-11T12:08:45;90.73;;;38.60;;
4464;SDS011;2245;48.136;13.428;2024-01-11T12:11:15;105.10;;;40.70;;
4464;SDS011;2245;48.136;13.428;2024-01-11T12:13:44;93.80;;;40.00;;
4464;SDS011;2245;48.136;13.428;2024-01-11T12:16:11;86.23;;;37.17;;
4464;SDS011;2245;48.136;13.428;2024-01-11T12:18:38;76.30;;;35.53;;
4464;SDS011;2245;48.136;13.428;2024-01-11T12:21:06;89.27;;;39.10;;
4464;SDS011;2245;48.136;13.428;2024-01-11T12:23:33;88.73;;;40.17;;
4464;SDS011;2245;48.136;13.428;2024-01-11T12:26:01;81.70;;;37.60;;
4464;SDS011;2245;48.136;13.428;2024-01-11T12:28:32;96.97;;;37.50;;
4464;SDS011;2245;48.136;13.428;2024-01-11T12:30:59;100.13;;;41.60;;
4464;SDS011;2245;48.136;13.428;2024-01-11T12:33:26;95.83;;;40.57;;
4464;SDS011;2245;48.136;13.428;2024-01-11T12:35:54;100.30;;;41.80;;
4464;SDS011;2245;48.136;13.428;2024-01-11T12:38:21;97.30;;;38.90;;
4464;SDS011;2245;48.136;13.428;2024-01-11T12:40:48;97.43;;;40.00;;
4464;SDS011;2245;48.136;13.428;2024-01-11T12:43:15;126.73;;;49.27;;
4464;SDS011;2245;48.136;13.428;2024-01-11T12:45:44;229.27;;;89.17;;
4464;SDS011;2245;48.136;13.428;2024-01-11T12:48:11;236.00;;;88.53;;
4464;SDS011;2245;48.136;13.428;2024-01-11T12:50:41;104.37;;;41.97;;
4464;SDS011;2245;48.136;13.428;2024-01-11T12:53:09;93.73;;;42.23;;
4464;SDS011;2245;48.136;13.428;2024-01-11T12:55:37;87.90;;;39.00;;
4464;SDS011;2245;48.136;13.428;2024-01-11T12:58:05;103.80;;;40.37;;
4464;SDS011;2245;48.136;13.428;2024-01-11T13:00:34;95.47;;;38.73;;
4464;SDS011;2245;48.136;13.428;2024-01-11T13:03:03;95.47;;;40.70;;
4464;SDS011;2245;48.136;13.428;2024-01-11T13:05:30;86.53;;;39.47;;
4464;SDS011;2245;48.136;13.428;2024-01-11T13:08:00;109.57;;;44.97;;
4464;SDS011;2245;48.136;13.428;2024-01-11T13:10:29;103.00;;;41.27;;
4464;SDS011;2245;48.136;13.428;2024-01-11T13:12:58;82.27;;;38.10;;
4464;SDS011;2245;48.136;13.428;2024-01-11T13:15:26;106.20;;;37.97;;
4464;SDS011;2245;48.136;13.428;2024-01-11T13:17:54;94.70;;;40.73;;
4464;SDS011;2245;48.136;13.428;2024-01-11T13:20:23;90.77;;;37.37;;
4464;SDS011;2245;48.136;13.428;2024-01-11T13:23:10;84.83;;;39.77;;
4464;SDS011;2245;48.136;13.428;2024-01-11T13:25:39;80.87;;;38.63;;
4464;SDS011;2245;48.136;13.428;2024-01-11T13:28:06;89.03;;;40.17;;
4464;SDS011;2245;48.136;13.428;2024-01-11T13:30:33;85.57;;;40.13;;
4464;SDS011;2245;48.136;13.428;2024-01-11T13:33:00;95.23;;;38.63;;
4464;SDS011;2245;48.136;13.428;2024-01-11T13:35:29;88.83;;;36.70;;
4464;SDS011;2245;48.136;13.428;2024-01-11T13:37:56;94.90;;;43.17;;
4464;SDS011;2245;48.136;13.428;2024-01-11T13:40:23;86.13;;;40.97;;
4464;SDS011;2245;48.136;13.428;2024-01-11T13:42:53;80.97;;;37.77;;
4464;SDS011;2245;48.136;13.428;2024-01-11T13:45:20;87.50;;;39.93;;
4464;SDS011;2245;48.136;13.428;2024-01-11T13:47:47;104.80;;;41.60;;
4464;SDS011;2245;48.136;13.428;2024-01-11T13:50:14;96.50;;;40.43;;
4464;SDS011;2245;48.136;13.428;2024-01-11T13:52:43;107.57;;;51.67;;
4464;SDS011;2245;48.136;13.428;2024-01-11T13:55:10;104.17;;;39.57;;
4464;SDS011;2245;48.136;13.428;2024-01-11T13:57:38;119.23;;;42.67;;
4464;SDS011;2245;48.136;13.428;2024-01-11T14:00:07;89.60;;;41.03;;
4464;SDS011;2245;48.136;13.428;2024-01-11T14:02:36;124.80;;;45.40;;
4464;SDS011;2245;48.136;13.428;2024-01-11T14:05:05;123.60;;;44.47;;
4464;SDS011;2245;48.136;13.428;2024-01-11T14:07:35;83.90;;;39.10;;
4464;SDS011;2245;48.136;13.428;2024-01-11T14:10:04;93.20;;;39.87;;
4464;SDS011;2245;48.136;13.428;2024-01-11T14:12:31;91.57;;;40.23;;
4464;SDS011;2245;48.136;13.428;2024-01-11T14:14:58;86.07;;;36.50;;
4464;SDS011;2245;48.136;13.428;2024-01-11T14:17:25;90.13;;;40.13;;
4464;SDS011;2245;48.136;13.428;2024-01-11T14:19:52;95.03;;;39.90;;
4464;SDS011;2245;48.136;13.428;2024-01-11T14:22:19;106.13;;;40.90;;
4464;SDS011;2245;48.136;13.428;2024-01-11T14:24:46;99.90;;;41.17;;
4464;SDS011;2245;48.136;13.428;2024-01-11T14:27:15;103.30;;;42.20;;
4464;SDS011;2245;48.136;13.428;2024-01-11T14:29:42;92.43;;;39.13;;
4464;SDS011;2245;48.136;13.428;2024-01-11T14:32:09;113.37;;;45.60;;
4464;SDS011;2245;48.136;13.428;2024-01-11T14:34:36;101.93;;;41.60;;
4464;SDS011;2245;48.136;13.428;2024-01-11T14:37:04;102.33;;;41.20;;